createdAt,value
2017-09-25T00:00:00.429Z,14.71
2017-09-25T00:02:29.223Z,14.72
2017-09-25T00:05:00.811Z,14.73
2017-09-25T00:07:29.664Z,14.74
2017-09-25T00:09:58.397Z,14.74
2017-09-25T00:12:27.094Z,14.75
2017-09-25T00:14:55.886Z,14.76
2017-09-25T00:17:24.658Z,14.75
2017-09-25T00:19:53.483Z,14.77
2017-09-25T00:22:22.242Z,14.78
2017-09-25T00:24:50.944Z,14.78
2017-09-25T00:27:19.684Z,14.78
2017-09-25T00:29:48.456Z,14.80
2017-09-25T00:32:17.219Z,14.79
2017-09-25T00:34:45.942Z,14.80
2017-09-25T00:37:14.749Z,14.79
2017-09-25T00:39:43.578Z,14.80
2017-09-25T00:42:12.297Z,14.80
2017-09-25T00:44:41.058Z,14.81
2017-09-25T00:47:09.812Z,14.80
2017-09-25T00:49:38.559Z,14.81
2017-09-25T00:52:06.814Z,14.81
2017-09-25T00:54:35.434Z,14.81
2017-09-25T00:57:04.289Z,14.80
2017-09-25T00:59:32.757Z,14.81
2017-09-25T01:02:12.589Z,14.81
2017-09-25T01:04:52.452Z,14.81
2017-09-25T01:07:21.249Z,14.81
2017-09-25T01:09:49.985Z,14.81
2017-09-25T01:12:18.449Z,14.82
2017-09-25T01:14:47.247Z,14.81
2017-09-25T01:17:15.960Z,14.81
2017-09-25T01:19:44.824Z,14.81
2017-09-25T01:22:13.566Z,14.80
2017-09-25T01:24:42.411Z,14.80
2017-09-25T01:27:11.183Z,14.80
2017-09-25T01:29:39.973Z,14.81
2017-09-25T01:32:10.522Z,14.82
2017-09-25T01:34:39.232Z,14.82
2017-09-25T01:37:08.032Z,14.82
2017-09-25T01:39:36.786Z,14.82
2017-09-25T01:42:05.332Z,14.82
2017-09-25T01:44:34.715Z,14.82
2017-09-25T01:47:03.490Z,14.82
2017-09-25T01:49:32.222Z,14.82
2017-09-25T01:52:01.001Z,14.82
2017-09-25T01:54:29.694Z,14.82
2017-09-25T01:56:58.405Z,14.81
2017-09-25T01:59:27.150Z,14.81
2017-09-25T02:01:55.897Z,14.81
2017-09-25T02:04:24.654Z,14.80
2017-09-25T02:06:53.415Z,14.81
2017-09-25T02:09:22.203Z,14.80
2017-09-25T02:11:51.015Z,14.79
2017-09-25T02:14:19.830Z,14.79
2017-09-25T02:16:48.539Z,14.80
2017-09-25T02:19:17.291Z,14.79
2017-09-25T02:21:46.060Z,14.80
2017-09-25T02:24:14.807Z,14.80
2017-09-25T02:26:43.599Z,14.80
2017-09-25T02:29:12.331Z,14.80
2017-09-25T02:31:41.166Z,14.80
2017-09-25T02:34:09.931Z,14.79
2017-09-25T02:36:38.688Z,14.79
2017-09-25T02:39:07.405Z,14.79
2017-09-25T02:41:36.169Z,14.79
2017-09-25T02:44:04.967Z,14.78
2017-09-25T02:46:33.663Z,14.78
2017-09-25T02:49:02.456Z,14.78
2017-09-25T02:51:31.195Z,14.78
2017-09-25T02:54:00.099Z,14.78
2017-09-25T02:56:28.801Z,14.78
2017-09-25T02:58:59.193Z,14.79
2017-09-25T03:01:27.938Z,14.79
2017-09-25T03:03:56.658Z,14.77
2017-09-25T03:06:25.422Z,14.79
2017-09-25T03:08:54.188Z,14.77
2017-09-25T03:11:23.003Z,14.79
2017-09-25T03:13:51.739Z,14.79
2017-09-25T03:16:20.558Z,14.78
2017-09-25T03:18:49.299Z,14.79
2017-09-25T03:21:18.068Z,14.77
2017-09-25T03:23:46.824Z,14.79
2017-09-25T03:26:15.617Z,14.78
2017-09-25T03:28:44.434Z,14.79
2017-09-25T03:31:13.153Z,14.79
2017-09-25T03:33:41.915Z,14.80
2017-09-25T03:36:10.643Z,14.80
2017-09-25T03:38:39.400Z,14.80
2017-09-25T03:41:08.145Z,14.79
2017-09-25T03:43:36.987Z,14.79
2017-09-25T03:46:05.890Z,14.79
2017-09-25T03:48:36.942Z,14.79
2017-09-25T03:51:05.717Z,14.80
2017-09-25T03:53:34.561Z,14.79
2017-09-25T03:56:03.294Z,14.79
2017-09-25T03:58:35.740Z,14.80
2017-09-25T04:01:04.531Z,14.80
2017-09-25T04:03:33.257Z,14.81
2017-09-25T04:06:01.953Z,14.81
2017-09-25T04:08:34.992Z,14.81
2017-09-25T04:11:03.817Z,14.81
2017-09-25T04:13:32.650Z,14.81
2017-09-25T04:16:03.273Z,14.82
2017-09-25T04:18:37.346Z,14.82
2017-09-25T04:21:06.089Z,14.82
2017-09-25T04:23:34.883Z,14.81
2017-09-25T04:26:08.680Z,14.82
2017-09-25T04:28:39.962Z,14.82
2017-09-25T04:31:08.699Z,14.82
2017-09-25T04:33:41.671Z,14.83
2017-09-25T04:36:17.012Z,14.82
2017-09-25T04:38:45.855Z,14.83
2017-09-25T04:41:14.660Z,14.83
2017-09-25T04:43:43.405Z,14.84
2017-09-25T04:46:13.790Z,14.85
2017-09-25T04:48:42.498Z,14.85
2017-09-25T04:51:13.460Z,14.85
2017-09-25T04:53:43.189Z,14.85
2017-09-25T04:56:12.029Z,14.86
2017-09-25T04:58:40.810Z,14.85
2017-09-25T05:01:09.554Z,14.85
2017-09-25T05:03:38.534Z,14.85
2017-09-25T05:06:08.719Z,14.85
2017-09-25T05:08:37.662Z,14.86
2017-09-25T05:11:06.544Z,14.87
2017-09-25T05:13:35.402Z,14.87
2017-09-25T05:16:04.214Z,14.88
2017-09-25T05:18:35.787Z,14.87
2017-09-25T05:21:04.571Z,14.88
2017-09-25T05:23:37.707Z,14.88
2017-09-25T05:26:06.556Z,14.88
2017-09-25T05:28:39.193Z,14.88
2017-09-25T05:31:08.118Z,14.88
2017-09-25T05:33:36.944Z,14.89
2017-09-25T05:36:05.817Z,14.88
2017-09-25T05:38:36.161Z,14.89
2017-09-25T05:41:05.046Z,14.89
2017-09-25T05:43:33.868Z,14.90
2017-09-25T05:46:02.771Z,14.90
2017-09-25T05:48:35.428Z,14.89
2017-09-25T05:51:04.463Z,14.89
2017-09-25T05:53:33.246Z,14.91
2017-09-25T05:56:02.088Z,14.91
2017-09-25T05:58:35.586Z,14.92
2017-09-25T06:01:04.331Z,14.91
2017-09-25T06:03:33.108Z,14.92
2017-09-25T06:06:01.935Z,14.91
2017-09-25T06:08:34.647Z,14.92
2017-09-25T06:11:03.439Z,14.92
2017-09-25T06:13:32.094Z,14.92
2017-09-25T06:16:00.936Z,14.92
2017-09-25T06:18:29.701Z,14.92
2017-09-25T06:20:58.576Z,14.93
2017-09-25T06:23:27.405Z,14.94
2017-09-25T06:25:56.203Z,14.93
2017-09-25T06:28:25.031Z,14.94
2017-09-25T06:30:53.201Z,14.95
2017-09-25T06:33:22.200Z,14.94
2017-09-25T06:35:50.989Z,14.95
2017-09-25T06:38:19.751Z,14.95
2017-09-25T06:40:48.556Z,14.96
2017-09-25T06:43:17.340Z,14.95
2017-09-25T06:45:46.219Z,14.96
2017-09-25T06:48:15.095Z,14.97
2017-09-25T06:50:43.889Z,14.98
2017-09-25T06:53:12.707Z,14.98
2017-09-25T06:55:41.506Z,14.98
2017-09-25T06:58:10.298Z,14.98
2017-09-25T07:00:39.045Z,14.99
2017-09-25T07:03:07.840Z,14.99
2017-09-25T07:05:36.589Z,15.00
2017-09-25T07:08:05.448Z,15.00
2017-09-25T07:10:34.262Z,15.00
2017-09-25T07:13:03.055Z,15.01
2017-09-25T07:15:31.911Z,15.02
2017-09-25T07:18:00.691Z,15.02
2017-09-25T07:20:29.466Z,15.03
2017-09-25T07:22:58.295Z,15.03
2017-09-25T07:25:27.080Z,15.03
2017-09-25T07:27:55.953Z,15.04
2017-09-25T07:30:24.797Z,15.05
2017-09-25T07:32:53.610Z,15.06
2017-09-25T07:35:22.520Z,15.06
2017-09-25T07:37:51.391Z,15.09
2017-09-25T07:40:20.255Z,15.09
2017-09-25T07:42:49.104Z,15.10
2017-09-25T07:45:17.985Z,15.13
2017-09-25T07:47:46.805Z,15.14
2017-09-25T07:50:15.664Z,15.15
2017-09-25T07:52:44.438Z,15.16
2017-09-25T07:55:13.235Z,15.17
2017-09-25T07:57:42.020Z,15.18
2017-09-25T08:00:10.892Z,15.18
2017-09-25T08:02:39.646Z,15.19
2017-09-25T08:05:08.457Z,15.21
2017-09-25T08:07:37.239Z,15.22
2017-09-25T08:10:07.190Z,15.23
2017-09-25T08:12:37.174Z,15.25
2017-09-25T08:15:05.967Z,15.25
2017-09-25T08:17:34.858Z,15.26
2017-09-25T08:20:03.725Z,15.28
2017-09-25T08:22:32.445Z,15.29
2017-09-25T08:25:01.240Z,15.30
2017-09-25T08:27:30.020Z,15.31
2017-09-25T08:29:58.840Z,15.34
2017-09-25T08:32:27.626Z,15.36
2017-09-25T08:34:56.437Z,15.37
2017-09-25T08:37:25.253Z,15.38
2017-09-25T08:39:54.127Z,15.40
2017-09-25T08:42:22.949Z,15.43
2017-09-25T08:44:51.698Z,15.45
2017-09-25T08:47:20.538Z,15.47
2017-09-25T08:49:49.318Z,15.48
2017-09-25T08:52:18.183Z,15.50
2017-09-25T08:54:46.976Z,15.52
2017-09-25T08:57:15.740Z,15.52
2017-09-25T08:59:44.664Z,15.56
2017-09-25T09:02:13.388Z,15.58
2017-09-25T09:04:42.171Z,15.62
2017-09-25T09:07:11.055Z,15.64
2017-09-25T09:09:39.871Z,15.66
2017-09-25T09:12:08.590Z,15.70
2017-09-25T09:14:37.425Z,15.71
2017-09-25T09:17:06.474Z,15.73
2017-09-25T09:19:35.225Z,15.77
2017-09-25T09:22:04.048Z,15.80
2017-09-25T09:24:32.872Z,15.83
2017-09-25T09:27:01.744Z,15.86
2017-09-25T09:29:30.381Z,15.88
2017-09-25T09:31:59.201Z,15.93
2017-09-25T09:34:28.051Z,15.94
2017-09-25T09:36:56.813Z,15.97
2017-09-25T09:39:25.576Z,16.01
2017-09-25T09:41:54.313Z,16.02
2017-09-25T09:44:23.158Z,16.03
2017-09-25T09:46:51.926Z,16.07
2017-09-25T09:49:20.763Z,16.10
2017-09-25T09:51:49.586Z,16.11
2017-09-25T09:54:18.398Z,16.13
2017-09-25T09:56:47.233Z,16.15
2017-09-25T09:59:16.001Z,16.19
2017-09-25T10:01:44.753Z,16.21
2017-09-25T10:04:13.567Z,16.23
2017-09-25T10:06:42.407Z,16.25
2017-09-25T10:09:11.203Z,16.28
2017-09-25T10:11:39.998Z,16.32
2017-09-25T10:14:08.834Z,16.35
2017-09-25T10:16:37.623Z,16.38
2017-09-25T10:19:06.325Z,16.42
2017-09-25T10:21:35.121Z,16.43
2017-09-25T10:24:03.846Z,16.46
2017-09-25T10:26:32.674Z,16.48
2017-09-25T10:29:01.427Z,16.51
2017-09-25T10:31:30.225Z,16.55
2017-09-25T10:33:58.952Z,16.58
2017-09-25T10:36:27.685Z,16.60
2017-09-25T10:38:56.467Z,16.62
2017-09-25T10:41:25.199Z,16.66
2017-09-25T10:43:53.990Z,16.66
2017-09-25T10:46:22.730Z,16.66
2017-09-25T10:48:51.502Z,16.70
2017-09-25T10:51:20.306Z,16.76
2017-09-25T10:53:49.048Z,16.75
2017-09-25T10:56:17.866Z,16.72
2017-09-25T10:58:46.629Z,16.73
2017-09-25T11:01:15.408Z,16.75
2017-09-25T11:03:44.158Z,16.78
2017-09-25T11:06:13.041Z,16.77
2017-09-25T11:08:41.802Z,16.77
2017-09-25T11:11:10.546Z,16.81
2017-09-25T11:13:39.297Z,16.81
2017-09-25T11:16:08.043Z,16.82
2017-09-25T11:18:36.740Z,16.81
2017-09-25T11:21:05.518Z,16.82
2017-09-25T11:23:34.241Z,16.82
2017-09-25T11:26:03.044Z,16.86
2017-09-25T11:28:34.560Z,16.92
2017-09-25T11:31:03.439Z,16.93
2017-09-25T11:33:32.208Z,16.93
2017-09-25T11:36:04.114Z,16.97
2017-09-25T11:38:35.256Z,16.96
2017-09-25T11:41:03.991Z,16.98
2017-09-25T11:43:32.786Z,16.99
2017-09-25T11:46:01.545Z,17.00
2017-09-25T11:48:34.017Z,16.99
2017-09-25T11:51:02.765Z,17.01
2017-09-25T11:53:31.569Z,17.01
2017-09-25T11:56:00.466Z,17.02
2017-09-25T11:58:29.196Z,17.04
2017-09-25T12:00:58.189Z,17.03
2017-09-25T12:03:27.046Z,17.10
2017-09-25T12:05:55.797Z,17.16
2017-09-25T12:08:24.542Z,17.15
2017-09-25T12:10:53.273Z,17.20
2017-09-25T12:13:23.836Z,17.22
2017-09-25T12:15:52.616Z,17.23
2017-09-25T12:18:21.394Z,17.25
2017-09-25T12:20:50.270Z,17.27
2017-09-25T12:23:18.993Z,17.32
2017-09-25T12:25:47.774Z,17.34
2017-09-25T12:28:16.520Z,17.34
2017-09-25T12:30:45.280Z,17.38
2017-09-25T12:33:14.011Z,17.36
2017-09-25T12:35:42.734Z,17.42
2017-09-25T12:38:11.536Z,17.42
2017-09-25T12:40:40.268Z,17.42
2017-09-25T12:43:09.079Z,17.41
2017-09-25T12:45:37.849Z,17.41
2017-09-25T12:48:06.631Z,17.42
2017-09-25T12:50:35.458Z,17.44
2017-09-25T12:53:04.227Z,17.42
2017-09-25T12:55:32.988Z,17.44
2017-09-25T12:58:01.735Z,17.50
2017-09-25T13:00:30.538Z,17.51
2017-09-25T13:02:59.529Z,17.56
2017-09-25T13:05:30.087Z,17.55
2017-09-25T13:08:02.761Z,17.54
2017-09-25T13:10:31.480Z,17.52
2017-09-25T13:13:00.291Z,17.54
2017-09-25T13:15:28.998Z,17.55
2017-09-25T13:17:57.817Z,17.54
2017-09-25T13:20:26.594Z,17.53
2017-09-25T13:22:55.373Z,17.53
2017-09-25T13:25:24.142Z,17.53
2017-09-25T13:27:52.918Z,17.53
2017-09-25T13:30:21.720Z,17.54
2017-09-25T13:32:50.628Z,17.54
2017-09-25T13:35:19.494Z,17.54
2017-09-25T13:37:48.253Z,17.53
2017-09-25T13:40:16.985Z,17.50
2017-09-25T13:42:45.802Z,17.50
2017-09-25T13:45:14.563Z,17.50
2017-09-25T13:47:43.325Z,17.50
2017-09-25T13:50:12.131Z,17.48
2017-09-25T13:52:40.889Z,17.46
2017-09-25T13:55:09.710Z,17.45
2017-09-25T13:57:38.483Z,17.46
2017-09-25T14:02:41.046Z,17.47
2017-09-25T14:05:09.827Z,17.46
2017-09-25T14:07:38.613Z,17.45
2017-09-25T14:10:07.355Z,17.48
2017-09-25T14:12:36.173Z,17.46
2017-09-25T14:15:04.917Z,17.46
2017-09-25T14:17:33.735Z,17.45
2017-09-25T14:20:02.545Z,17.43
2017-09-25T14:22:31.405Z,17.43
2017-09-25T14:25:00.170Z,17.42
2017-09-25T14:27:28.922Z,17.43
2017-09-25T14:29:57.690Z,17.39
2017-09-25T14:32:26.457Z,17.41
2017-09-25T14:34:55.215Z,17.40
2017-09-25T14:37:23.961Z,17.39
2017-09-25T14:39:52.813Z,17.36
2017-09-25T14:42:21.602Z,17.37
2017-09-25T14:44:50.401Z,17.37
2017-09-25T14:47:19.154Z,17.37
2017-09-25T14:49:47.961Z,17.38
2017-09-25T14:52:16.775Z,17.34
2017-09-25T14:54:45.629Z,17.37
2017-09-25T14:57:14.433Z,17.41
2017-09-25T14:59:43.223Z,17.42
2017-09-25T15:02:11.976Z,17.41
2017-09-25T15:04:40.727Z,17.43
2017-09-25T15:07:09.290Z,17.44
2017-09-25T15:09:38.404Z,17.45
2017-09-25T15:12:07.163Z,17.44
2017-09-25T15:14:35.913Z,17.47
2017-09-25T15:17:04.710Z,17.47
2017-09-25T15:19:33.541Z,17.43
2017-09-25T15:22:02.298Z,17.44
2017-09-25T15:24:32.066Z,17.43
2017-09-25T15:27:15.006Z,17.40
2017-09-25T15:29:54.163Z,17.37
2017-09-25T15:32:29.248Z,17.37
2017-09-25T15:35:03.600Z,17.37
2017-09-25T15:37:32.685Z,17.38
2017-09-25T15:40:02.769Z,17.36
2017-09-25T15:42:38.664Z,17.35
2017-09-25T15:45:15.276Z,17.34
2017-09-25T15:47:45.540Z,17.31
2017-09-25T15:50:20.806Z,17.30
2017-09-25T15:52:49.578Z,17.30
2017-09-25T15:55:21.130Z,17.30
2017-09-25T15:57:58.389Z,17.29
2017-09-25T16:00:38.734Z,17.25
2017-09-25T16:03:14.574Z,17.25
2017-09-25T16:05:47.470Z,17.26
2017-09-25T16:08:19.649Z,17.25
2017-09-25T16:10:53.282Z,17.21
2017-09-25T16:13:32.517Z,17.18
2017-09-25T16:16:11.934Z,17.17
2017-09-25T16:18:54.554Z,17.15
2017-09-25T16:21:33.741Z,17.12
2017-09-25T16:24:13.792Z,17.11
2017-09-25T16:26:50.365Z,17.07
2017-09-25T16:29:23.098Z,17.04
2017-09-25T16:31:58.048Z,17.02
2017-09-25T16:34:36.742Z,16.98
2017-09-25T16:37:12.537Z,16.97
2017-09-25T16:39:49.879Z,16.94
2017-09-25T16:42:23.685Z,16.91
2017-09-25T16:44:57.750Z,16.84
2017-09-25T16:47:34.034Z,16.84
2017-09-25T16:50:08.047Z,16.82
2017-09-25T16:52:50.104Z,16.79
2017-09-25T16:55:27.623Z,16.76
2017-09-25T16:58:02.524Z,16.73
2017-09-25T17:00:35.050Z,16.69
2017-09-25T17:03:08.127Z,16.64
2017-09-25T17:05:44.388Z,16.60
2017-09-25T17:08:21.101Z,16.57
2017-09-25T17:11:01.961Z,16.56
2017-09-25T17:13:33.615Z,16.52
2017-09-25T17:16:06.466Z,16.49
2017-09-25T17:18:40.232Z,16.47
2017-09-25T17:21:20.733Z,16.45
2017-09-25T17:23:52.755Z,16.42
2017-09-25T17:26:33.259Z,16.39
2017-09-25T17:29:07.208Z,16.35
2017-09-25T17:31:39.397Z,16.34
2017-09-25T17:34:14.313Z,16.31
2017-09-25T17:39:25.455Z,16.25
2017-09-25T17:41:54.249Z,16.22
2017-09-25T17:44:29.226Z,16.21
2017-09-25T17:47:03.096Z,16.18
2017-09-25T17:49:36.280Z,16.15
2017-09-25T17:52:20.952Z,16.13
2017-09-25T17:55:01.407Z,16.09
2017-09-25T17:57:45.986Z,16.07
2017-09-25T18:00:27.245Z,16.03
2017-09-25T18:05:50.499Z,15.97
2017-09-25T18:08:27.759Z,15.95
2017-09-25T18:11:09.045Z,15.90
2017-09-25T18:13:54.416Z,15.87
2017-09-25T18:16:34.213Z,15.86
2017-09-25T18:19:15.236Z,15.83
2017-09-25T18:21:57.209Z,15.80
2017-09-25T18:24:37.542Z,15.79
2017-09-25T18:27:19.825Z,15.78
2017-09-25T18:30:01.599Z,15.71
2017-09-25T18:32:42.919Z,15.71
2017-09-25T18:35:25.634Z,15.69
2017-09-25T18:38:01.126Z,15.67
2017-09-25T18:40:29.979Z,15.66
2017-09-25T18:43:07.841Z,15.63
2017-09-25T18:45:49.353Z,15.62
2017-09-25T18:48:18.821Z,15.59
2017-09-25T18:50:47.622Z,15.59
2017-09-25T18:53:16.384Z,15.58
2017-09-25T18:55:45.092Z,15.56
2017-09-25T18:58:13.922Z,15.53
2017-09-25T19:00:43.298Z,15.51
2017-09-25T19:03:12.489Z,15.50
2017-09-25T19:05:53.510Z,15.47
2017-09-25T19:08:28.214Z,15.44
2017-09-25T19:11:09.514Z,15.40
2017-09-25T19:13:52.225Z,15.38
2017-09-25T19:16:34.719Z,15.35
2017-09-25T19:19:06.235Z,15.31
2017-09-25T19:21:47.648Z,15.29
2017-09-25T19:24:30.039Z,15.27
2017-09-25T19:27:05.712Z,15.25
2017-09-25T19:29:47.804Z,15.23
2017-09-25T19:32:25.177Z,15.21
2017-09-25T19:34:57.717Z,15.18
2017-09-25T19:37:27.338Z,15.16
2017-09-25T19:39:55.921Z,15.16
2017-09-25T19:42:24.727Z,15.15
2017-09-25T19:45:08.538Z,15.13
2017-09-25T19:47:51.753Z,15.11
2017-09-25T19:53:36.227Z,15.10
2017-09-25T19:56:07.513Z,15.08
2017-09-25T19:58:47.856Z,15.07
2017-09-25T20:01:16.529Z,15.06
2017-09-25T20:03:45.110Z,15.06
2017-09-25T20:06:13.699Z,15.06
2017-09-25T20:08:58.838Z,15.04
2017-09-25T20:11:44.240Z,15.04
2017-09-25T20:14:28.889Z,15.03
2017-09-25T20:20:33.116Z,15.02
2017-09-25T20:23:17.174Z,15.01
2017-09-25T20:26:00.457Z,15.00
2017-09-25T20:28:48.371Z,14.97
2017-09-25T20:31:31.114Z,14.96
2017-09-25T20:34:15.170Z,14.96
2017-09-25T20:36:58.388Z,14.94
2017-09-25T20:39:41.228Z,14.95
2017-09-25T20:42:28.140Z,14.94
2017-09-25T20:45:14.427Z,14.94
2017-09-25T20:47:59.688Z,14.91
2017-09-25T20:50:47.037Z,14.90
